Terminal Aerodrome Forecast
Issued by NWS

Home | Current Version | Previous Version | Text Only | Print | Product List | Glossary Off
Versions: 1 2 3 4 5 6 7 8 9 10 11 12 13 14 15 16 17

219
FTUS41 KCLE 160523
TAFFDY
TAF
KFDY 160523Z 1606/1706 31006KT P6SM SCT030
     FM161500 30007KT P6SM BKN060
     FM162100 VRB04KT P6SM SCT050=

USA.gov is the U.S. government's official web portal to all federal, state and local government web resources and services.